createdAt,value
2023-03-05T00:00:37.670Z,0.00
2023-03-05T00:01:37.634Z,0.00
2023-03-05T00:02:37.613Z,0.00
2023-03-05T00:03:37.573Z,0.00
2023-03-05T00:04:37.482Z,0.00
2023-03-05T00:05:37.435Z,0.00
2023-03-05T00:06:37.398Z,0.00
2023-03-05T00:07:37.345Z,0.00
2023-03-05T00:08:37.298Z,0.00
2023-03-05T00:09:37.253Z,0.00
2023-03-05T00:10:37.207Z,0.00
2023-03-05T00:11:37.154Z,0.00
2023-03-05T00:12:37.124Z,0.00
2023-03-05T00:13:37.063Z,0.00
2023-03-05T00:14:37.033Z,0.00
2023-03-05T00:15:37.020Z,0.00
2023-03-05T00:16:36.918Z,0.00
2023-03-05T00:17:36.869Z,0.00
2023-03-05T00:18:36.832Z,0.00
2023-03-05T00:19:36.779Z,0.00
2023-03-05T00:20:36.731Z,0.00
2023-03-05T00:21:36.684Z,0.00
2023-03-05T00:22:36.641Z,0.00
2023-03-05T00:23:36.609Z,0.00
2023-03-05T00:24:36.542Z,0.00
2023-03-05T00:25:36.509Z,0.00
2023-03-05T00:26:36.451Z,0.00
2023-03-05T00:27:36.402Z,0.00
2023-03-05T00:28:36.375Z,0.00
2023-03-05T00:29:36.311Z,0.00
2023-03-05T00:30:36.282Z,0.00
2023-03-05T00:31:36.489Z,0.00
2023-03-05T00:32:36.272Z,0.00
2023-03-05T00:33:36.124Z,0.00
2023-03-05T00:34:36.077Z,0.00
2023-03-05T00:35:36.169Z,0.00
2023-03-05T00:36:35.997Z,0.00
2023-03-05T00:37:35.937Z,0.00
2023-03-05T00:38:35.900Z,0.00
2023-03-05T00:39:35.846Z,0.00
2023-03-05T00:40:35.948Z,0.00
2023-03-05T00:41:35.751Z,0.00
2023-03-05T00:42:35.701Z,0.00
2023-03-05T00:43:35.657Z,0.00
2023-03-05T00:44:35.613Z,0.00
2023-03-05T00:45:35.563Z,0.00
2023-03-05T00:46:35.660Z,0.00
2023-03-05T00:47:35.471Z,0.00
2023-03-05T00:48:35.420Z,0.00
2023-03-05T00:49:35.380Z,0.00
2023-03-05T00:50:35.326Z,0.00
2023-03-05T00:51:35.282Z,0.00
2023-03-05T00:52:35.235Z,0.00
2023-03-05T00:53:35.196Z,0.00
2023-03-05T00:54:35.140Z,0.00
2023-03-05T00:55:35.094Z,0.00
2023-03-05T00:56:35.043Z,0.00
2023-03-05T00:57:35.003Z,0.00
2023-03-05T00:58:34.974Z,0.00
2023-03-05T00:59:34.909Z,0.00
2023-03-05T01:00:34.856Z,0.00
2023-03-05T01:01:34.836Z,0.00
2023-03-05T01:02:34.918Z,0.00
2023-03-05T01:03:34.730Z,0.00
2023-03-05T01:04:34.671Z,0.00
2023-03-05T01:05:34.689Z,0.00
2023-03-05T01:06:34.569Z,0.00
2023-03-05T01:07:34.516Z,0.00
2023-03-05T01:08:34.464Z,0.00
2023-03-05T01:09:34.422Z,0.00
2023-03-05T01:10:34.374Z,0.00
2023-03-05T01:11:34.327Z,0.00
2023-03-05T01:12:34.278Z,0.00
2023-03-05T01:13:34.234Z,0.00
2023-03-05T01:14:34.178Z,0.00
2023-03-05T01:15:34.146Z,0.00
2023-03-05T01:16:34.157Z,0.00
2023-03-05T01:17:34.091Z,0.00
2023-03-05T01:18:34.079Z,0.00
2023-03-05T01:19:34.003Z,0.00
2023-03-05T01:20:33.893Z,0.00
2023-03-05T01:21:33.847Z,0.00
2023-03-05T01:22:33.796Z,0.00
2023-03-05T01:23:33.752Z,0.00
2023-03-05T01:24:33.702Z,0.00
2023-03-05T01:25:33.655Z,0.00
2023-03-05T01:26:33.610Z,0.00
2023-03-05T01:27:33.560Z,0.00
2023-03-05T01:28:33.520Z,0.00
2023-03-05T01:29:33.471Z,0.00
2023-03-05T01:30:33.432Z,0.00
2023-03-05T01:31:33.458Z,0.00
2023-03-05T01:32:34.806Z,0.00
2023-03-05T01:33:33.277Z,0.00
2023-03-05T01:34:33.249Z,0.00
2023-03-05T01:35:33.229Z,0.00
2023-03-05T01:36:33.133Z,0.00
2023-03-05T01:37:33.088Z,0.00
2023-03-05T01:38:33.039Z,0.00
2023-03-05T01:39:32.997Z,0.00
2023-03-05T01:40:32.946Z,0.00
2023-03-05T01:41:32.899Z,0.00
2023-03-05T01:42:32.850Z,0.00
2023-03-05T01:43:32.805Z,0.00
2023-03-05T01:44:32.769Z,0.00
2023-03-05T01:45:32.785Z,0.00
2023-03-05T01:46:32.990Z,0.00
2023-03-05T01:47:32.638Z,0.00
2023-03-05T01:48:32.571Z,0.00
2023-03-05T01:49:32.538Z,0.00
2023-03-05T01:50:32.492Z,0.00
2023-03-05T01:51:32.437Z,0.00
2023-03-05T01:52:32.380Z,0.00
2023-03-05T01:53:32.366Z,0.00
2023-03-05T01:54:32.300Z,0.00
2023-03-05T01:55:32.254Z,0.00
2023-03-05T01:56:32.216Z,0.00
2023-03-05T01:57:32.145Z,0.00
2023-03-05T01:58:32.093Z,0.00
2023-03-05T01:59:32.073Z,0.00
2023-03-05T02:00:31.996Z,0.00
2023-03-05T02:01:32.002Z,0.00
2023-03-05T02:02:31.920Z,0.00
2023-03-05T02:03:31.897Z,0.00
2023-03-05T02:04:31.807Z,0.00
2023-03-05T02:05:31.764Z,0.00
2023-03-05T02:06:31.736Z,0.00
2023-03-05T02:07:31.673Z,0.00
2023-03-05T02:08:31.620Z,0.00
2023-03-05T02:09:31.576Z,0.00
2023-03-05T02:10:31.533Z,0.00
2023-03-05T02:11:31.481Z,0.00
2023-03-05T02:12:31.435Z,0.00
2023-03-05T02:13:31.389Z,0.00
2023-03-05T02:14:31.366Z,0.00
2023-03-05T02:15:31.296Z,0.00
2023-03-05T02:16:31.276Z,0.00
2023-03-05T02:17:31.201Z,0.00
2023-03-05T02:18:31.170Z,0.00
2023-03-05T02:19:31.113Z,0.00
2023-03-05T02:20:31.063Z,0.00
2023-03-05T02:21:31.015Z,0.00
2023-03-05T02:22:30.979Z,0.00
2023-03-05T02:23:30.933Z,0.00
2023-03-05T02:24:30.868Z,0.00
2023-03-05T02:25:30.838Z,0.00
2023-03-05T02:26:30.786Z,0.00
2023-03-05T02:27:30.729Z,0.00
2023-03-05T02:28:30.679Z,0.00
2023-03-05T02:29:30.644Z,0.00
2023-03-05T02:30:30.584Z,0.00
2023-03-05T02:31:30.571Z,0.00
2023-03-05T02:32:30.525Z,0.00
2023-03-05T02:33:30.442Z,0.00
2023-03-05T02:34:30.392Z,0.00
2023-03-05T02:35:30.380Z,0.00
2023-03-05T02:36:30.304Z,0.00
2023-03-05T02:37:30.251Z,0.00
2023-03-05T02:38:30.222Z,0.00
2023-03-05T02:39:30.162Z,0.00
2023-03-05T02:40:30.123Z,0.00
2023-03-05T02:41:30.469Z,0.00
2023-03-05T02:42:30.217Z,0.00
2023-03-05T02:43:29.987Z,0.00
2023-03-05T02:44:29.925Z,0.00
2023-03-05T02:45:29.909Z,0.00
2023-03-05T02:46:29.843Z,0.00
2023-03-05T02:47:29.777Z,0.00
2023-03-05T02:48:29.731Z,0.00
2023-03-05T02:49:29.685Z,0.00
2023-03-05T02:50:29.646Z,0.00
2023-03-05T02:51:29.591Z,0.00
2023-03-05T11:09:43.496Z,2328.00
2023-03-05T11:10:43.422Z,2640.00
2023-03-05T11:11:43.367Z,2832.00
2023-03-05T11:12:43.309Z,2940.00
2023-03-05T11:13:43.259Z,3032.00
2023-03-05T11:14:43.207Z,3124.00
2023-03-05T11:15:43.214Z,3200.00
2023-03-05T11:16:43.100Z,3232.00
2023-03-05T11:17:43.064Z,3288.00
2023-03-05T11:18:43.008Z,3416.00
2023-03-05T11:19:42.951Z,3492.00
2023-03-05T11:20:42.900Z,3508.00
2023-03-05T11:21:42.853Z,3528.00
2023-03-05T11:22:42.805Z,3492.00
2023-03-05T11:23:42.753Z,3472.00
2023-03-05T11:24:42.707Z,3480.00
2023-03-05T11:25:42.692Z,3508.00
2023-03-05T11:26:42.609Z,3572.00
2023-03-05T11:27:42.564Z,3668.00
2023-03-05T11:28:42.514Z,3788.00
2023-03-05T11:29:42.470Z,3916.00
2023-03-05T11:30:42.475Z,4068.00
2023-03-05T11:31:42.379Z,4252.00
2023-03-05T11:32:42.324Z,4396.00
2023-03-05T11:33:42.281Z,4488.00
2023-03-05T11:34:42.235Z,4544.00
2023-03-05T11:35:42.332Z,4580.00
2023-03-05T11:36:42.135Z,4620.00
2023-03-05T11:37:42.094Z,4636.00
2023-03-05T11:38:42.048Z,4728.00
2023-03-05T11:39:42.004Z,4684.00
2023-03-05T11:40:41.950Z,4624.00
2023-03-05T11:41:41.933Z,4548.00
2023-03-05T11:42:41.859Z,4548.00
2023-03-05T11:43:41.811Z,4448.00
2023-03-05T11:44:41.767Z,4472.00
2023-03-05T11:45:41.721Z,4420.00
2023-03-05T11:47:41.629Z,4504.00
2023-03-05T11:48:41.581Z,4536.00
2023-03-05T11:49:41.536Z,4544.00
2023-03-05T11:50:41.501Z,4680.00
2023-03-05T11:51:41.463Z,4648.00
2023-03-05T11:52:41.421Z,4244.00
2023-03-05T11:53:41.396Z,3900.00
2023-03-05T11:54:41.314Z,3612.00
2023-03-05T11:55:41.276Z,3344.00
2023-03-05T11:56:41.223Z,3308.00
2023-03-05T11:57:41.201Z,3308.00
2023-03-05T11:58:41.133Z,3280.00
2023-03-05T11:59:41.097Z,3248.00
2023-03-05T12:00:41.043Z,3228.00
2023-03-05T12:01:41.033Z,3188.00
2023-03-05T12:02:40.985Z,3064.00
2023-03-05T12:03:40.930Z,2808.00
2023-03-05T12:04:40.865Z,2540.00
2023-03-05T12:05:40.822Z,2368.00
2023-03-05T12:06:40.837Z,2228.00
2023-03-05T12:07:40.923Z,2188.00
2023-03-05T12:08:40.685Z,2200.00
2023-03-05T12:09:41.119Z,2288.00
2023-03-05T12:10:40.657Z,2300.00
2023-03-05T12:11:40.905Z,2308.00
2023-03-05T12:12:40.886Z,2340.00
2023-03-05T12:13:42.472Z,2432.00
2023-03-05T12:14:40.591Z,2520.00
2023-03-05T12:15:41.074Z,2420.00
2023-03-05T12:16:40.338Z,2204.00
2023-03-05T12:17:40.490Z,2052.00
2023-03-05T12:18:40.760Z,1976.00
2023-03-05T12:19:40.533Z,1928.00
2023-03-05T12:20:40.182Z,1884.00
2023-03-05T12:21:40.103Z,1780.00
2023-03-05T12:22:40.846Z,1672.00
2023-03-05T12:23:40.016Z,1688.00
2023-03-05T12:24:39.968Z,1740.00
2023-03-05T12:25:39.925Z,1756.00
2023-03-05T12:26:39.882Z,1780.00
2023-03-05T12:27:39.836Z,1788.00
2023-03-05T12:28:39.794Z,1872.00
2023-03-05T12:29:40.092Z,1972.00
2023-03-05T12:30:39.708Z,2060.00
2023-03-05T12:31:39.780Z,2132.00
2023-03-05T12:32:39.712Z,2208.00
2023-03-05T12:33:39.601Z,2324.00
2023-03-05T12:34:39.524Z,2392.00
2023-03-05T12:35:39.814Z,2460.00
2023-03-05T12:36:39.856Z,2492.00
2023-03-05T12:37:39.401Z,2520.00
2023-03-05T12:38:39.374Z,2612.00
2023-03-05T12:39:39.320Z,2688.00
2023-03-05T12:40:39.389Z,2736.00
2023-03-05T12:41:39.261Z,2796.00
2023-03-05T12:42:39.182Z,2864.00
2023-03-05T12:43:39.132Z,2932.00
2023-03-05T12:44:39.072Z,2992.00
2023-03-05T12:45:39.048Z,3108.00
2023-03-05T12:46:39.327Z,3188.00
2023-03-05T12:47:40.523Z,3212.00
2023-03-05T12:48:38.957Z,3276.00
2023-03-05T12:49:38.881Z,3324.00
2023-03-05T12:50:38.877Z,3316.00
2023-03-05T12:51:38.781Z,3312.00
2023-03-05T12:52:38.732Z,3296.00
2023-03-05T12:53:38.868Z,3272.00
2023-03-05T12:54:38.627Z,3264.00
2023-03-05T12:55:38.576Z,3316.00
2023-03-05T12:56:38.553Z,3284.00
2023-03-05T12:57:38.512Z,3224.00
2023-03-05T12:58:38.466Z,3148.00
2023-03-05T12:59:38.417Z,3104.00
2023-03-05T13:00:38.423Z,3112.00
2023-03-05T13:01:38.340Z,3208.00
2023-03-05T13:02:38.594Z,3220.00
2023-03-05T13:03:38.272Z,3184.00
2023-03-05T13:04:38.195Z,3156.00
2023-03-05T13:05:38.154Z,3244.00
2023-03-05T13:06:38.087Z,3332.00
2023-03-05T13:07:38.049Z,3460.00
2023-03-05T13:08:38.035Z,3308.00
2023-03-05T13:09:37.950Z,3224.00
2023-03-05T13:10:37.927Z,3212.00
2023-03-05T13:11:37.980Z,3108.00
2023-03-05T13:12:37.829Z,2928.00
2023-03-05T13:13:37.786Z,2812.00
2023-03-05T13:14:37.754Z,2740.00
2023-03-05T13:15:37.699Z,2688.00
2023-03-05T13:16:37.649Z,2576.00
2023-03-05T13:17:37.604Z,2144.00
2023-03-05T13:18:38.836Z,1972.00
2023-03-05T13:19:37.519Z,1832.00
2023-03-05T13:20:37.463Z,1676.00
2023-03-05T13:21:37.407Z,1508.00
2023-03-05T13:22:37.382Z,1368.00
2023-03-05T13:23:37.343Z,1268.00
2023-03-05T13:24:37.274Z,1260.00
2023-03-05T13:25:37.261Z,1284.00
2023-03-05T13:26:37.201Z,1384.00
2023-03-05T13:27:37.138Z,1520.00
2023-03-05T13:28:37.102Z,1716.00
2023-03-05T13:29:37.372Z,1960.00
2023-03-05T13:30:37.034Z,2224.00
2023-03-05T13:31:37.003Z,2408.00
2023-03-05T13:32:37.016Z,2560.00
2023-03-05T13:33:36.922Z,2652.00
2023-03-05T13:34:46.627Z,2800.00
2023-03-05T13:35:36.806Z,2988.00
2023-03-05T13:36:36.756Z,3164.00
2023-03-05T13:37:36.688Z,3276.00
2023-03-05T13:38:36.647Z,3428.00
2023-03-05T13:39:36.604Z,3596.00
2023-03-05T13:40:36.554Z,3880.00
2023-03-05T13:41:36.527Z,3996.00
2023-03-05T13:42:36.480Z,4036.00
2023-03-05T13:43:36.428Z,4416.00
2023-03-05T13:44:36.393Z,4416.00
2023-03-05T13:45:36.403Z,4284.00
2023-03-05T13:46:36.300Z,4032.00
2023-03-05T13:47:36.263Z,4408.00
2023-03-05T13:48:36.214Z,4128.00
2023-03-05T13:49:36.181Z,4640.00
2023-03-05T13:50:36.132Z,5204.00
2023-03-05T13:51:36.077Z,4280.00
2023-03-05T13:52:36.032Z,4044.00
2023-03-05T13:53:35.972Z,4056.00
2023-03-05T13:54:35.936Z,3976.00
2023-03-05T13:55:35.884Z,4144.00
2023-03-05T13:56:35.851Z,4108.00
2023-03-05T13:57:35.804Z,4524.00
2023-03-05T13:58:35.748Z,4432.00
2023-03-05T13:59:35.702Z,4624.00
2023-03-05T14:00:35.658Z,3756.00
2023-03-05T14:01:35.984Z,3496.00
2023-03-05T14:02:35.896Z,4196.00
2023-03-05T14:03:35.524Z,4332.00
2023-03-05T14:04:35.553Z,3220.00
2023-03-05T14:05:35.455Z,3256.00
2023-03-05T14:06:35.396Z,3116.00
2023-03-05T14:07:35.363Z,3044.00
2023-03-05T14:08:35.321Z,3156.00
2023-03-05T14:09:35.257Z,3224.00
2023-03-05T14:10:35.219Z,3236.00
2023-03-05T14:11:35.168Z,3232.00
2023-03-05T14:12:35.136Z,3016.00
2023-03-05T14:13:35.092Z,2876.00
2023-03-05T14:14:35.038Z,2848.00
2023-03-05T14:15:34.998Z,2976.00
2023-03-05T14:16:34.980Z,3156.00
2023-03-05T14:17:34.920Z,3280.00
2023-03-05T14:18:34.870Z,3428.00
2023-03-05T14:19:34.840Z,3728.00
2023-03-05T14:20:34.770Z,3676.00
2023-03-05T14:21:34.746Z,4396.00
2023-03-05T14:22:34.703Z,5092.00
2023-03-05T14:23:34.637Z,4060.00
2023-03-05T14:24:34.922Z,4000.00
2023-03-05T14:25:34.569Z,4552.00
2023-03-05T14:26:34.525Z,5500.00
2023-03-05T14:27:34.459Z,3156.00
2023-03-05T14:28:34.419Z,2760.00
2023-03-05T14:29:34.375Z,2296.00
2023-03-05T14:30:34.372Z,2136.00
2023-03-05T14:31:34.279Z,2192.00
2023-03-05T14:32:34.277Z,1992.00
2023-03-05T14:33:34.216Z,1664.00
2023-03-05T14:34:34.168Z,1628.00
2023-03-05T14:35:34.384Z,1660.00
2023-03-05T14:36:34.065Z,1740.00
2023-03-05T14:37:34.032Z,1880.00
2023-03-05T14:38:34.009Z,2088.00
2023-03-05T14:39:34.009Z,2208.00
2023-03-05T14:40:33.882Z,2488.00
2023-03-05T14:41:33.852Z,2836.00
2023-03-05T14:42:33.807Z,2968.00
2023-03-05T14:43:33.743Z,2908.00
2023-03-05T14:44:33.927Z,2768.00
2023-03-05T14:45:33.688Z,2676.00
2023-03-05T14:46:33.663Z,2684.00
2023-03-05T14:47:33.569Z,2636.00
2023-03-05T14:48:33.544Z,2632.00
2023-03-05T14:49:33.482Z,2604.00
2023-03-05T14:50:33.452Z,2620.00
2023-03-05T14:51:33.406Z,2720.00
2023-03-05T14:52:33.369Z,2920.00
2023-03-05T14:53:33.320Z,3192.00
2023-03-05T14:54:33.261Z,3408.00
2023-03-05T14:55:33.232Z,3696.00
2023-03-05T14:56:33.174Z,3996.00
2023-03-05T14:57:33.153Z,4528.00
2023-03-05T14:58:33.097Z,4568.00
2023-03-05T14:59:33.065Z,4576.00
2023-03-05T15:00:33.017Z,5388.00
2023-03-05T15:01:32.985Z,4904.00
2023-03-05T15:02:32.968Z,4988.00
2023-03-05T15:03:32.880Z,5420.00
2023-03-05T15:04:32.833Z,5248.00
2023-03-05T15:05:32.781Z,4460.00
2023-03-05T15:06:32.757Z,4172.00
2023-03-05T15:07:32.678Z,3792.00
2023-03-05T15:08:32.717Z,3640.00
2023-03-05T15:09:32.633Z,3476.00
2023-03-05T15:10:32.568Z,3576.00
2023-03-05T15:11:32.499Z,3820.00
2023-03-05T15:12:32.477Z,3936.00
2023-03-05T15:13:32.427Z,3904.00
2023-03-05T15:14:32.391Z,3640.00
2023-03-05T15:15:32.369Z,3316.00
2023-03-05T15:16:33.084Z,3396.00
2023-03-05T15:17:32.231Z,3416.00
2023-03-05T15:18:32.186Z,3508.00
2023-03-05T15:19:32.157Z,3300.00
2023-03-05T15:20:32.120Z,3132.00
2023-03-05T15:21:32.051Z,2820.00
2023-03-05T15:22:32.031Z,2816.00
2023-03-05T15:23:31.976Z,2372.00
2023-03-05T15:24:31.940Z,2288.00
2023-03-05T15:25:31.904Z,2268.00
2023-03-05T15:26:31.836Z,2196.00
2023-03-05T15:27:31.804Z,2184.00
2023-03-05T15:28:31.741Z,2204.00
2023-03-05T15:29:32.022Z,1844.00
2023-03-05T15:30:31.649Z,1600.00
2023-03-05T15:31:31.628Z,1576.00
2023-03-05T15:32:31.622Z,1548.00
2023-03-05T15:33:31.540Z,1480.00
2023-03-05T15:34:31.487Z,1492.00
2023-03-05T15:35:31.466Z,1564.00
2023-03-05T15:36:33.508Z,1472.00
2023-03-05T15:37:31.357Z,1252.00
2023-03-05T15:38:31.308Z,1144.00
2023-03-05T15:39:31.268Z,1052.00
2023-03-05T15:40:31.220Z,1000.00
2023-03-05T15:41:31.189Z,984.00
2023-03-05T15:42:31.127Z,980.00
2023-03-05T15:43:31.073Z,888.00
2023-03-05T15:44:31.044Z,764.00
2023-03-05T15:45:30.977Z,712.00
2023-03-05T15:46:31.048Z,668.00
2023-03-05T15:47:33.396Z,624.00
2023-03-05T15:48:30.870Z,600.00
2023-03-05T15:49:31.125Z,592.00
2023-03-05T15:50:30.757Z,608.00
2023-03-05T15:51:30.729Z,640.00
2023-03-05T15:52:30.681Z,616.00
2023-03-05T15:53:30.944Z,568.00
2023-03-05T15:54:30.591Z,748.00
2023-03-05T15:55:30.549Z,612.00
2023-03-05T15:56:30.500Z,760.00
2023-03-05T15:57:30.764Z,920.00
2023-03-05T15:58:30.412Z,808.00
2023-03-05T15:59:30.371Z,1060.00
2023-03-05T16:00:30.317Z,1064.00
2023-03-05T16:01:30.343Z,1284.00
2023-03-05T16:02:30.233Z,976.00
2023-03-05T16:03:30.196Z,780.00
2023-03-05T16:04:30.118Z,628.00
2023-03-05T16:05:30.100Z,488.00
2023-03-05T16:06:30.044Z,476.00
2023-03-05T16:07:31.421Z,456.00
2023-03-05T16:08:29.941Z,364.00
2023-03-05T16:09:29.911Z,308.00
2023-03-05T16:10:29.874Z,240.00
2023-03-05T16:11:29.827Z,172.00
2023-03-05T16:12:29.772Z,128.00
2023-03-05T16:13:29.753Z,120.00
2023-03-05T16:14:29.690Z,104.00
2023-03-05T16:15:30.826Z,92.00
2023-03-05T16:16:29.633Z,88.00
2023-03-05T16:17:29.548Z,80.00
2023-03-05T16:18:29.500Z,76.00
2023-03-05T16:19:29.457Z,72.00
2023-03-05T16:20:29.420Z,68.00
2023-03-05T16:21:29.351Z,64.00
2023-03-05T16:22:29.324Z,68.00
2023-03-05T16:23:29.276Z,68.00
2023-03-05T16:24:29.233Z,64.00
2023-03-05T16:25:29.491Z,64.00
2023-03-05T16:26:29.178Z,64.00
2023-03-05T16:27:29.073Z,64.00
2023-03-05T16:28:29.047Z,68.00
2023-03-05T16:29:30.794Z,64.00
2023-03-05T16:30:28.957Z,56.00
2023-03-05T16:31:28.926Z,56.00
2023-03-05T16:32:28.947Z,56.00
2023-03-05T16:33:28.821Z,52.00
2023-03-05T16:34:28.776Z,48.00
2023-03-05T16:35:28.774Z,52.00
2023-03-05T16:36:28.688Z,52.00
2023-03-05T16:37:28.949Z,52.00
2023-03-05T16:38:28.583Z,56.00
2023-03-05T16:39:28.544Z,60.00
2023-03-05T16:40:44.292Z,64.00
2023-03-05T16:41:28.456Z,68.00
2023-03-05T16:42:28.394Z,64.00
2023-03-05T16:43:28.364Z,64.00
2023-03-05T16:44:28.417Z,64.00
2023-03-05T16:46:28.309Z,56.00
2023-03-05T16:47:28.171Z,52.00
2023-03-05T16:48:28.132Z,48.00
2023-03-05T16:49:28.075Z,44.00
2023-03-05T16:50:28.043Z,40.00
2023-03-05T16:51:27.999Z,36.00
2023-03-05T16:52:27.944Z,32.00
2023-03-05T16:53:27.894Z,24.00
2023-03-05T16:54:27.831Z,24.00
2023-03-05T16:55:27.790Z,16.00
2023-03-05T16:56:27.757Z,16.00
2023-03-05T16:57:27.896Z,16.00
2023-03-05T16:58:27.678Z,16.00
2023-03-05T16:59:27.597Z,12.00
2023-03-05T17:00:27.574Z,12.00
2023-03-05T17:01:27.524Z,12.00
2023-03-05T17:02:27.490Z,12.00
2023-03-05T17:03:27.436Z,12.00
2023-03-05T17:04:27.615Z,8.00
2023-03-05T17:05:27.372Z,8.00
2023-03-05T17:06:27.279Z,12.00
2023-03-05T17:07:27.252Z,8.00
2023-03-05T17:08:27.210Z,8.00
2023-03-05T17:09:27.160Z,8.00
2023-03-05T17:10:27.098Z,8.00
2023-03-05T17:11:27.065Z,4.00
2023-03-05T17:12:27.207Z,8.00
2023-03-05T17:13:26.967Z,4.00
2023-03-05T17:14:27.009Z,4.00
2023-03-05T17:15:26.876Z,4.00
2023-03-05T17:16:26.862Z,4.00
2023-03-05T17:17:26.766Z,4.00
2023-03-05T17:18:26.741Z,4.00
2023-03-05T17:19:26.695Z,0.00
2023-03-05T17:20:26.652Z,0.00
2023-03-05T17:21:26.596Z,4.00
2023-03-05T17:22:26.558Z,4.00
2023-03-05T17:23:26.511Z,4.00
2023-03-05T17:24:26.440Z,4.00
2023-03-05T17:25:26.411Z,4.00
2023-03-05T17:26:26.679Z,4.00
2023-03-05T17:27:26.301Z,4.00
2023-03-05T17:28:26.293Z,4.00
2023-03-05T17:29:26.210Z,0.00
2023-03-05T17:30:26.165Z,0.00
2023-03-05T17:31:26.140Z,0.00
2023-03-05T17:32:26.141Z,0.00
2023-03-05T17:33:26.403Z,0.00
2023-03-05T17:34:35.596Z,0.00
2023-03-05T17:35:25.978Z,0.00
2023-03-05T17:36:25.980Z,0.00
2023-03-05T17:37:25.868Z,0.00
2023-03-05T17:38:25.848Z,0.00
2023-03-05T17:39:25.761Z,0.00
2023-03-05T17:40:25.700Z,0.00
2023-03-05T17:41:25.659Z,0.00
2023-03-05T17:42:25.608Z,0.00
2023-03-05T17:43:25.561Z,0.00
2023-03-05T17:44:25.515Z,0.00
2023-03-05T17:45:25.624Z,0.00
2023-03-05T17:46:25.427Z,0.00
2023-03-05T17:47:25.371Z,0.00
2023-03-05T17:48:25.332Z,0.00
2023-03-05T17:49:25.299Z,0.00
2023-03-05T17:50:25.258Z,0.00
2023-03-05T17:51:25.192Z,0.00
2023-03-05T17:52:25.145Z,0.00
2023-03-05T17:53:25.097Z,0.00
2023-03-05T17:54:25.067Z,0.00
2023-03-05T17:55:25.028Z,0.00
2023-03-05T17:56:26.688Z,0.00
2023-03-05T17:57:25.234Z,0.00
2023-03-05T17:58:24.863Z,0.00
2023-03-05T17:59:24.837Z,0.00
2023-03-05T18:00:24.770Z,0.00
2023-03-05T18:01:24.847Z,0.00
2023-03-05T18:02:24.677Z,0.00
2023-03-05T18:03:24.711Z,0.00
2023-03-05T18:04:24.935Z,0.00
2023-03-05T18:05:24.540Z,0.00
2023-03-05T18:06:24.511Z,0.00
2023-03-05T18:07:24.444Z,0.00
2023-03-05T18:08:24.404Z,0.00
2023-03-05T18:09:24.367Z,0.00
2023-03-05T18:10:24.327Z,0.00
2023-03-05T18:11:24.263Z,0.00
2023-03-05T18:12:24.237Z,0.00
2023-03-05T18:13:24.192Z,0.00
2023-03-05T18:14:24.122Z,0.00
2023-03-05T18:15:24.090Z,0.00
2023-03-05T18:16:24.044Z,0.00
2023-03-05T18:17:23.980Z,0.00
2023-03-05T18:18:23.936Z,0.00
2023-03-05T18:19:23.905Z,0.00
2023-03-05T18:20:23.855Z,0.00
2023-03-05T18:21:23.794Z,0.00
2023-03-05T18:22:23.805Z,0.00
2023-03-05T18:23:23.725Z,0.00
2023-03-05T18:24:23.676Z,0.00
2023-03-05T18:25:23.628Z,0.00
2023-03-05T18:26:23.584Z,0.00
2023-03-05T18:27:23.841Z,0.00
2023-03-05T18:28:23.494Z,0.00
2023-03-05T18:29:23.756Z,0.00
2023-03-05T18:30:23.403Z,0.00
2023-03-05T18:31:23.332Z,0.00
2023-03-05T18:32:23.356Z,0.00
2023-03-05T18:33:23.233Z,0.00
2023-03-05T18:34:23.192Z,0.00
2023-03-05T18:35:23.194Z,0.00
2023-03-05T18:36:23.423Z,0.00
2023-03-05T18:37:23.045Z,0.00
2023-03-05T18:38:23.021Z,0.00
2023-03-05T18:39:22.961Z,0.00
2023-03-05T18:40:22.907Z,0.00
2023-03-05T18:41:23.339Z,0.00
2023-03-05T18:42:22.832Z,0.00
2023-03-05T18:43:22.807Z,0.00
2023-03-05T18:44:22.722Z,0.00
2023-03-05T18:45:22.678Z,0.00
2023-03-05T18:46:22.719Z,0.00
2023-03-05T18:47:22.788Z,0.00
2023-03-05T18:48:22.555Z,0.00
2023-03-05T18:49:22.483Z,0.00
2023-03-05T18:50:22.452Z,0.00
2023-03-05T18:51:22.392Z,0.00
2023-03-05T18:52:22.349Z,0.00
2023-03-05T18:53:22.311Z,0.00
2023-03-05T18:54:22.292Z,0.00
2023-03-05T18:55:22.204Z,0.00
2023-03-05T18:56:22.164Z,0.00
2023-03-05T18:57:22.116Z,0.00
2023-03-05T18:58:23.021Z,0.00
2023-03-05T18:59:22.021Z,0.00
2023-03-05T19:00:21.977Z,0.00
2023-03-05T19:01:21.987Z,0.00
2023-03-05T19:02:21.905Z,0.00
2023-03-05T19:03:23.073Z,0.00
2023-03-05T19:04:21.824Z,0.00
2023-03-05T19:05:21.750Z,0.00
2023-03-05T19:06:21.694Z,0.00
2023-03-05T19:07:21.724Z,0.00
2023-03-05T19:08:21.605Z,0.00
2023-03-05T19:09:21.560Z,0.00
2023-03-05T19:10:21.532Z,0.00
2023-03-05T19:11:21.463Z,0.00
2023-03-05T19:12:21.417Z,0.00
2023-03-05T19:13:21.368Z,0.00
2023-03-05T19:14:21.329Z,0.00
2023-03-05T19:15:21.278Z,0.00
2023-03-05T19:16:21.252Z,0.00
2023-03-05T19:17:21.179Z,0.00
2023-03-05T19:18:21.135Z,0.00
2023-03-05T19:19:21.105Z,0.00
2023-03-05T19:20:21.042Z,0.00
2023-03-05T19:21:21.018Z,0.00
2023-03-05T19:22:20.954Z,0.00
2023-03-05T19:23:20.916Z,0.00
2023-03-05T19:24:20.858Z,0.00
2023-03-05T19:25:20.825Z,0.00
2023-03-05T19:27:20.739Z,0.00
2023-03-05T19:28:20.670Z,0.00
2023-03-05T19:29:20.621Z,0.00
2023-03-05T19:30:20.580Z,0.00
2023-03-05T19:31:20.616Z,0.00
2023-03-05T19:32:20.559Z,0.00
2023-03-05T19:33:20.438Z,0.00
2023-03-05T19:34:20.385Z,0.00
2023-03-05T19:35:20.423Z,0.00
2023-03-05T19:36:20.292Z,0.00
2023-03-05T19:37:20.249Z,0.00
2023-03-05T19:38:20.214Z,0.00
2023-03-05T19:39:20.175Z,0.00
2023-03-05T19:40:20.102Z,0.00
2023-03-05T19:41:20.055Z,0.00
2023-03-05T19:42:20.032Z,0.00
2023-03-05T19:43:19.987Z,0.00
2023-03-05T19:44:19.930Z,0.00
2023-03-05T19:45:19.871Z,0.00
2023-03-05T19:46:19.866Z,0.00
2023-03-05T19:47:20.103Z,0.00
2023-03-05T19:48:20.064Z,0.00
2023-03-05T19:49:20.006Z,0.00
2023-03-05T19:50:19.635Z,0.00
2023-03-05T19:51:19.607Z,0.00
2023-03-05T19:52:19.558Z,0.00
2023-03-05T19:53:19.492Z,0.00
2023-03-05T19:54:19.441Z,0.00
2023-03-05T19:55:19.428Z,0.00
2023-03-05T19:56:19.354Z,0.00
2023-03-05T19:57:19.304Z,0.00
2023-03-05T19:58:19.255Z,0.00
2023-03-05T19:59:19.244Z,0.00
2023-03-05T20:00:19.160Z,0.00
2023-03-05T20:01:19.191Z,0.00
2023-03-05T20:02:19.428Z,0.00
2023-03-05T20:03:19.016Z,0.00
2023-03-05T20:04:19.317Z,0.00
2023-03-05T20:05:18.957Z,0.00
2023-03-05T20:06:18.879Z,0.00
2023-03-05T20:07:18.829Z,0.00
2023-03-05T20:08:18.805Z,0.00
2023-03-05T20:09:19.059Z,0.00
2023-03-05T20:10:18.710Z,0.00
2023-03-05T20:11:18.641Z,0.00
2023-03-05T20:12:18.595Z,0.00
2023-03-05T20:13:18.568Z,0.00
2023-03-05T20:14:18.844Z,0.00
2023-03-05T20:15:18.484Z,0.00
2023-03-05T20:16:18.487Z,0.00
2023-03-05T20:17:18.362Z,0.00
2023-03-05T20:18:18.338Z,0.00
2023-03-05T20:19:18.299Z,0.00
2023-03-05T20:20:18.230Z,0.00
2023-03-05T20:21:18.176Z,0.00
2023-03-05T20:22:18.127Z,0.00
2023-03-05T20:23:18.093Z,0.00
2023-03-05T20:24:18.361Z,0.00
2023-03-05T20:25:17.988Z,0.00
2023-03-05T20:26:17.966Z,0.00
2023-03-05T20:27:17.893Z,0.00
2023-03-05T20:28:17.853Z,0.00
2023-03-05T20:29:18.695Z,0.00
2023-03-05T20:30:17.776Z,0.00
2023-03-05T20:31:17.757Z,0.00
2023-03-05T20:32:17.711Z,0.00
2023-03-05T20:33:17.634Z,0.00
2023-03-05T20:34:17.891Z,0.00
2023-03-05T20:35:17.604Z,0.00
2023-03-05T20:36:17.492Z,0.00
2023-03-05T20:37:17.445Z,0.00
2023-03-05T20:38:17.758Z,0.00
2023-03-05T20:39:17.327Z,0.00
2023-03-05T20:40:17.302Z,0.00
2023-03-05T20:41:17.254Z,0.00
2023-03-05T20:42:17.206Z,0.00
2023-03-05T20:43:17.251Z,0.00
2023-03-05T20:44:17.094Z,0.00
2023-03-05T20:45:17.052Z,0.00
2023-03-05T20:46:17.111Z,0.00
2023-03-05T20:47:16.970Z,0.00
2023-03-05T20:48:16.943Z,0.00
2023-03-05T20:49:16.857Z,0.00
2023-03-05T20:50:16.830Z,0.00
2023-03-05T20:51:16.770Z,0.00
2023-03-05T20:52:16.721Z,0.00
2023-03-05T20:53:16.672Z,0.00
2023-03-05T20:54:16.714Z,0.00
2023-03-05T20:55:16.596Z,0.00
2023-03-05T20:56:16.559Z,0.00
2023-03-05T20:57:16.482Z,0.00
2023-03-05T20:58:16.440Z,0.00
2023-03-05T20:59:16.388Z,0.00
2023-03-05T21:00:16.353Z,0.00
2023-03-05T21:01:16.296Z,0.00
2023-03-05T21:02:16.292Z,0.00
2023-03-05T21:03:16.224Z,0.00
2023-03-05T21:04:16.155Z,0.00
2023-03-05T21:05:16.106Z,0.00
2023-03-05T21:06:16.063Z,0.00
2023-03-05T21:07:16.014Z,0.00